createdAt,value
2023-04-10T00:00:53.119Z,42.73
2023-04-10T00:03:20.842Z,49.60
2023-04-10T00:05:48.585Z,38.83
2023-04-10T00:08:17.620Z,46.30
2023-04-10T00:10:45.226Z,41.93
2023-04-10T00:13:12.836Z,52.03
2023-04-10T00:15:40.708Z,46.30
2023-04-10T00:18:08.577Z,45.37
2023-04-10T00:20:36.634Z,54.93
2023-04-10T00:23:04.212Z,45.07
2023-04-10T00:25:33.279Z,43.27
2023-04-10T00:28:00.894Z,50.40
2023-04-10T00:30:28.951Z,43.97
2023-04-10T00:32:56.639Z,41.70
2023-04-10T00:35:24.265Z,41.43
2023-04-10T00:37:52.421Z,41.97
2023-04-10T00:40:20.081Z,50.07
2023-04-10T00:42:49.124Z,46.50
2023-04-10T00:45:16.743Z,44.87
2023-04-10T00:47:44.510Z,39.23
2023-04-10T00:50:12.553Z,39.53
2023-04-10T00:52:40.240Z,43.20
2023-04-10T00:55:09.110Z,42.30
2023-04-10T00:57:37.062Z,38.30
2023-04-10T01:00:07.001Z,43.07
2023-04-10T01:02:34.708Z,45.00
2023-04-10T01:05:02.509Z,37.30
2023-04-10T01:07:43.024Z,42.00
2023-04-10T01:10:18.849Z,46.50
2023-04-10T01:12:57.775Z,39.80
2023-04-10T01:15:29.552Z,45.07
2023-04-10T01:18:05.645Z,42.10
2023-04-10T01:20:35.785Z,45.90
2023-04-10T01:23:33.119Z,40.80
2023-04-10T01:26:04.454Z,41.70
2023-04-10T01:28:57.276Z,39.53
2023-04-10T01:31:31.251Z,47.63
2023-04-10T01:34:04.358Z,41.20
2023-04-10T01:36:49.857Z,44.23
2023-04-10T01:39:20.306Z,45.50
2023-04-10T01:41:50.996Z,41.07
2023-04-10T01:44:22.554Z,44.50
2023-04-10T01:46:51.472Z,43.53
2023-04-10T01:49:20.120Z,47.03
2023-04-10T01:51:48.784Z,44.73
2023-04-10T01:54:18.051Z,46.27
2023-04-10T01:56:45.938Z,45.40
2023-04-10T01:59:13.709Z,45.33
2023-04-10T02:01:42.742Z,42.10
2023-04-10T02:04:10.478Z,45.10
2023-04-10T02:06:44.795Z,43.87
2023-04-10T02:09:19.119Z,43.27
2023-04-10T02:11:52.922Z,46.20
2023-04-10T02:14:23.064Z,48.23
2023-04-10T02:16:56.349Z,41.80
2023-04-10T02:19:26.102Z,43.70
2023-04-10T02:21:54.618Z,43.90
2023-04-10T02:24:22.806Z,41.87
2023-04-10T02:26:51.897Z,44.80
2023-04-10T02:29:20.380Z,47.53
2023-04-10T02:31:48.370Z,45.43
2023-04-10T02:34:17.337Z,45.10
2023-04-10T02:36:45.105Z,44.33
2023-04-10T02:39:12.742Z,40.03
2023-04-10T02:41:40.330Z,48.30
2023-04-10T02:44:07.949Z,44.17
2023-04-10T02:46:35.722Z,40.20
2023-04-10T02:49:04.355Z,42.70
2023-04-10T02:51:37.032Z,51.40
2023-04-10T02:54:04.736Z,47.20
2023-04-10T02:56:34.734Z,39.23
2023-04-10T02:59:02.329Z,43.27
2023-04-10T03:01:30.807Z,38.10
2023-04-10T03:03:59.027Z,50.00
2023-04-10T03:06:27.379Z,48.60
2023-04-10T03:08:56.651Z,42.30
2023-04-10T03:11:24.303Z,45.97
2023-04-10T03:13:52.240Z,44.47
2023-04-10T03:16:20.687Z,51.10
2023-04-10T03:18:48.614Z,52.00
2023-04-10T03:21:16.462Z,47.03
2023-04-10T03:23:44.036Z,50.17
2023-04-10T03:26:13.000Z,45.63
2023-04-10T03:28:41.378Z,43.47
2023-04-10T03:31:09.683Z,47.60
2023-04-10T03:33:37.462Z,47.60
2023-04-10T03:36:05.738Z,40.80
2023-04-10T03:38:33.484Z,46.33
2023-04-10T03:41:01.179Z,39.97
2023-04-10T03:43:30.608Z,43.33
2023-04-10T03:45:58.229Z,42.60
2023-04-10T03:48:28.047Z,40.50
2023-04-10T03:50:55.993Z,41.73
2023-04-10T03:53:23.714Z,45.03
2023-04-10T03:55:52.401Z,42.83
2023-04-10T03:58:20.408Z,40.57
2023-04-10T04:00:49.401Z,47.03
2023-04-10T04:03:17.380Z,46.40
2023-04-10T04:05:45.223Z,44.20
2023-04-10T04:08:14.030Z,43.03
2023-04-10T04:10:41.704Z,42.63
2023-04-10T04:13:09.324Z,45.97
2023-04-10T04:15:37.072Z,45.70
2023-04-10T04:18:06.268Z,43.37
2023-04-10T04:20:34.173Z,38.80
2023-04-10T04:23:01.803Z,38.43
2023-04-10T04:25:29.448Z,37.27
2023-04-10T04:27:57.568Z,40.13
2023-04-10T04:30:25.266Z,43.30
2023-04-10T04:32:52.998Z,42.00
2023-04-10T04:35:23.037Z,52.70
2023-04-10T04:37:50.716Z,44.60
2023-04-10T04:40:18.399Z,38.60
2023-04-10T04:42:46.131Z,38.93
2023-04-10T04:45:14.212Z,41.97
2023-04-10T04:47:41.871Z,38.60
2023-04-10T04:50:11.093Z,40.60
2023-04-10T04:52:40.067Z,42.90
2023-04-10T04:55:08.714Z,45.73
2023-04-10T04:57:36.318Z,39.53
2023-04-10T05:00:04.423Z,36.90
2023-04-10T05:02:32.166Z,40.27
2023-04-10T05:05:00.394Z,40.97
2023-04-10T05:07:28.205Z,34.90
2023-04-10T05:09:57.210Z,37.40
2023-04-10T05:12:24.846Z,41.40
2023-04-10T05:14:52.515Z,37.23
2023-04-10T05:17:20.405Z,36.97
2023-04-10T05:19:48.048Z,36.33
2023-04-10T05:22:16.920Z,35.60
2023-04-10T05:24:46.316Z,34.73
2023-04-10T05:27:15.359Z,36.30
2023-04-10T05:29:42.980Z,34.63
2023-04-10T05:32:10.930Z,35.93
2023-04-10T05:34:38.519Z,36.00
2023-04-10T05:37:06.265Z,34.27
2023-04-10T05:39:33.912Z,35.10
2023-04-10T05:42:02.002Z,34.63
2023-04-10T05:44:31.874Z,36.20
2023-04-10T05:46:59.491Z,36.77
2023-04-10T05:49:27.486Z,33.23
2023-04-10T05:51:55.143Z,31.63
2023-04-10T05:54:22.849Z,31.33
2023-04-10T05:56:50.543Z,29.80
2023-04-10T05:59:18.189Z,30.93
2023-04-10T06:01:47.619Z,28.60
2023-04-10T06:04:15.509Z,30.27
2023-04-10T06:06:43.779Z,29.20
2023-04-10T06:09:11.378Z,31.30
2023-04-10T06:11:39.056Z,30.37
2023-04-10T06:14:06.678Z,29.70
2023-04-10T06:16:34.572Z,29.07
2023-04-10T06:19:04.451Z,29.43
2023-04-10T06:21:32.117Z,29.57
2023-04-10T06:23:59.810Z,30.70
2023-04-10T06:26:27.417Z,30.47
2023-04-10T06:28:55.383Z,31.47
2023-04-10T06:31:23.518Z,29.50
2023-04-10T06:33:51.518Z,26.77
2023-04-10T06:36:20.634Z,31.97
2023-04-10T06:38:48.387Z,30.60
2023-04-10T06:41:16.303Z,29.67
2023-04-10T06:43:43.954Z,29.43
2023-04-10T06:46:11.736Z,28.00
2023-04-10T06:48:39.874Z,28.43
2023-04-10T06:51:08.198Z,29.63
2023-04-10T06:53:37.198Z,28.97
2023-04-10T06:56:05.286Z,27.87
2023-04-10T06:58:33.088Z,26.20
2023-04-10T07:01:04.323Z,29.03
2023-04-10T07:03:32.484Z,28.80
2023-04-10T07:06:01.954Z,28.57
2023-04-10T07:08:29.735Z,27.87
2023-04-10T07:10:59.016Z,30.17
2023-04-10T07:13:26.775Z,27.60
2023-04-10T07:15:54.471Z,30.67
2023-04-10T07:18:22.192Z,27.37
2023-04-10T07:20:50.084Z,29.00
2023-04-10T07:23:17.679Z,29.23
2023-04-10T07:25:45.675Z,29.93
2023-04-10T07:28:14.657Z,29.47
2023-04-10T07:30:42.294Z,31.47
2023-04-10T07:33:10.063Z,28.83
2023-04-10T07:35:37.827Z,29.83
2023-04-10T07:38:05.513Z,29.70
2023-04-10T07:40:33.129Z,27.60
2023-04-10T07:43:00.801Z,28.10
2023-04-10T07:45:29.870Z,27.77
2023-04-10T07:47:59.625Z,32.17
2023-04-10T07:50:27.511Z,28.77
2023-04-10T07:52:55.225Z,27.83
2023-04-10T07:55:23.200Z,28.27
2023-04-10T07:57:52.213Z,29.43
2023-04-10T08:00:20.221Z,27.33
2023-04-10T08:02:49.297Z,27.50
2023-04-10T08:05:17.188Z,28.00
2023-04-10T08:07:45.735Z,27.90
2023-04-10T08:10:13.492Z,30.10
2023-04-10T08:12:41.135Z,26.80
2023-04-10T08:15:09.442Z,27.00
2023-04-10T08:17:37.078Z,26.30
2023-04-10T08:20:07.253Z,32.60
2023-04-10T08:22:34.987Z,26.37
2023-04-10T08:25:02.746Z,24.93
2023-04-10T08:27:31.026Z,22.80
2023-04-10T08:29:58.640Z,24.83
2023-04-10T08:32:27.612Z,24.60
2023-04-10T08:34:55.419Z,26.23
2023-04-10T08:37:24.420Z,24.27
2023-04-10T08:39:51.973Z,23.40
2023-04-10T08:42:19.932Z,32.87
2023-04-10T08:44:49.971Z,24.47
2023-04-10T08:47:21.573Z,25.03
2023-04-10T08:49:54.820Z,23.70
2023-04-10T08:52:26.049Z,21.87
2023-04-10T08:54:55.985Z,22.10
2023-04-10T08:57:26.878Z,21.83
2023-04-10T08:59:54.642Z,25.27
2023-04-10T09:02:23.231Z,23.90
2023-04-10T09:04:54.584Z,21.70
2023-04-10T09:07:24.095Z,23.17
2023-04-10T09:09:51.703Z,23.67
2023-04-10T09:12:19.379Z,22.90
2023-04-10T09:14:49.730Z,20.90
2023-04-10T09:17:19.564Z,19.63
2023-04-10T09:19:48.457Z,21.90
2023-04-10T09:22:17.440Z,20.43
2023-04-10T09:24:48.236Z,20.80
2023-04-10T09:27:31.293Z,19.43
2023-04-10T09:29:59.364Z,19.80
2023-04-10T09:32:38.554Z,19.63
2023-04-10T09:35:07.250Z,18.77
2023-04-10T09:37:35.700Z,19.90
2023-04-10T09:40:05.890Z,20.40
2023-04-10T09:42:34.515Z,18.93
2023-04-10T09:45:02.484Z,18.80
2023-04-10T09:47:30.822Z,17.83
2023-04-10T09:50:00.666Z,16.20
2023-04-10T09:52:30.216Z,18.13
2023-04-10T09:54:59.609Z,16.23
2023-04-10T09:57:31.222Z,17.93
2023-04-10T10:00:01.252Z,16.73
2023-04-10T10:02:31.418Z,16.80
2023-04-10T10:05:01.331Z,17.70
2023-04-10T10:07:30.783Z,17.20
2023-04-10T10:09:59.577Z,14.60
2023-04-10T10:12:35.181Z,13.20
2023-04-10T10:15:10.146Z,14.07
2023-04-10T10:17:44.526Z,13.90
2023-04-10T10:20:14.798Z,16.10
2023-04-10T10:22:43.187Z,16.93
2023-04-10T10:25:11.588Z,14.27
2023-04-10T10:27:42.659Z,14.57
2023-04-10T10:30:25.314Z,13.87
2023-04-10T10:32:58.711Z,14.83
2023-04-10T10:35:29.700Z,14.63
2023-04-10T10:38:01.276Z,14.67
2023-04-10T10:40:33.305Z,15.57
2023-04-10T10:43:09.372Z,15.90
2023-04-10T10:45:45.202Z,15.93
2023-04-10T10:48:13.042Z,15.07
2023-04-10T10:50:58.745Z,14.20
2023-04-10T10:53:47.478Z,14.73
2023-04-10T10:56:37.240Z,14.67
2023-04-10T10:59:06.274Z,13.57
2023-04-10T11:01:34.003Z,14.13
2023-04-10T11:04:02.282Z,13.60
2023-04-10T11:06:53.070Z,13.90
2023-04-10T11:09:48.025Z,14.90
2023-04-10T11:12:16.366Z,12.73
2023-04-10T11:14:47.111Z,12.50
2023-04-10T11:17:34.759Z,12.30
2023-04-10T11:20:03.449Z,12.90
2023-04-10T11:22:31.273Z,13.07
2023-04-10T11:25:01.807Z,10.53
2023-04-10T11:27:48.664Z,12.40
2023-04-10T11:30:31.742Z,11.30
2023-04-10T11:33:00.516Z,12.57
2023-04-10T11:35:28.733Z,11.70
2023-04-10T11:38:12.802Z,10.70
2023-04-10T11:40:56.216Z,11.70
2023-04-10T11:43:24.053Z,11.97
2023-04-10T11:46:00.922Z,12.03
2023-04-10T11:48:29.293Z,12.57
2023-04-10T11:50:57.118Z,12.13
2023-04-10T11:53:24.766Z,10.63
2023-04-10T11:55:52.405Z,10.70
2023-04-10T11:58:24.219Z,10.63
2023-04-10T12:01:04.157Z,10.63
2023-04-10T12:03:39.224Z,11.77
2023-04-10T12:06:12.495Z,10.47
2023-04-10T12:08:41.684Z,11.40
2023-04-10T12:11:11.206Z,9.90
2023-04-10T12:13:39.371Z,10.07
2023-04-10T12:16:10.697Z,11.70
2023-04-10T12:18:39.148Z,11.57
2023-04-10T12:21:08.600Z,12.53
2023-04-10T12:23:39.089Z,12.43
2023-04-10T12:26:09.977Z,11.57
2023-04-10T12:28:38.488Z,10.80
2023-04-10T12:31:06.837Z,11.23
2023-04-10T12:33:36.092Z,14.50
2023-04-10T12:36:04.054Z,12.20
2023-04-10T12:38:41.892Z,11.20
2023-04-10T12:41:11.215Z,12.77
2023-04-10T12:43:40.161Z,11.77
2023-04-10T12:46:09.764Z,12.40
2023-04-10T12:48:38.717Z,11.90
2023-04-10T12:51:06.758Z,12.30
2023-04-10T12:53:44.816Z,13.60
2023-04-10T12:56:13.534Z,12.03
2023-04-10T12:58:42.677Z,13.13
2023-04-10T13:01:11.112Z,11.43
2023-04-10T13:03:40.438Z,10.43
2023-04-10T13:06:09.250Z,11.60
2023-04-10T13:08:37.354Z,10.73
2023-04-10T13:11:05.811Z,12.57
2023-04-10T13:13:33.488Z,11.53
2023-04-10T13:16:01.302Z,11.97
2023-04-10T13:18:29.293Z,11.60
2023-04-10T13:20:58.196Z,10.97
2023-04-10T13:23:25.834Z,11.50
2023-04-10T13:25:53.535Z,10.70
2023-04-10T13:28:21.532Z,11.40
2023-04-10T13:30:49.280Z,10.13
2023-04-10T13:33:16.956Z,10.83
2023-04-10T13:35:44.749Z,10.53
2023-04-10T13:38:13.716Z,10.33
2023-04-10T13:40:41.304Z,10.10
2023-04-10T13:43:09.283Z,11.60
2023-04-10T13:45:36.917Z,10.17
2023-04-10T13:48:07.114Z,10.97
2023-04-10T13:50:34.945Z,11.27
2023-04-10T13:53:02.832Z,11.30
2023-04-10T13:55:31.769Z,10.83
2023-04-10T13:57:59.691Z,11.70
2023-04-10T14:00:27.772Z,11.47
2023-04-10T14:02:55.572Z,12.43
2023-04-10T14:05:23.341Z,11.57
2023-04-10T14:07:51.847Z,11.50
2023-04-10T14:10:20.240Z,10.70
2023-04-10T14:12:49.246Z,10.70
2023-04-10T14:15:16.885Z,9.67
2023-04-10T14:17:44.547Z,9.90
2023-04-10T14:20:13.258Z,9.93
2023-04-10T14:22:41.057Z,10.20
2023-04-10T14:25:13.709Z,11.70
2023-04-10T14:27:41.625Z,10.47
2023-04-10T14:30:11.297Z,10.70
2023-04-10T14:32:40.192Z,10.17
2023-04-10T14:35:09.026Z,10.03
2023-04-10T14:37:36.668Z,10.73
2023-04-10T14:40:05.634Z,10.83
2023-04-10T14:42:33.257Z,10.33
2023-04-10T14:45:00.965Z,8.60
2023-04-10T14:47:29.997Z,9.50
2023-04-10T14:49:57.696Z,8.70
2023-04-10T14:52:25.396Z,8.63
2023-04-10T14:54:53.180Z,9.07
2023-04-10T14:57:20.810Z,8.90
2023-04-10T14:59:48.462Z,9.33
2023-04-10T15:02:16.106Z,8.47
2023-04-10T15:04:45.117Z,8.53
2023-04-10T15:07:14.596Z,8.73
2023-04-10T15:09:43.744Z,8.47
2023-04-10T15:12:11.416Z,8.83
2023-04-10T15:14:38.976Z,8.93
2023-04-10T15:17:06.596Z,8.50
2023-04-10T15:19:34.236Z,7.97
2023-04-10T15:22:03.489Z,11.77
2023-04-10T15:24:37.025Z,10.80
2023-04-10T15:27:11.024Z,9.70
2023-04-10T15:29:39.870Z,8.40
2023-04-10T15:32:07.948Z,9.27
2023-04-10T15:34:35.550Z,8.10
2023-04-10T15:37:04.626Z,8.50
2023-04-10T15:39:32.224Z,7.70
2023-04-10T15:42:00.253Z,8.30
2023-04-10T15:44:27.966Z,7.97
2023-04-10T15:46:55.590Z,7.60
2023-04-10T15:49:33.726Z,8.10
2023-04-10T15:52:06.789Z,8.70
2023-04-10T15:54:35.079Z,9.50
2023-04-10T15:57:02.990Z,9.07
2023-04-10T15:59:30.757Z,9.07
2023-04-10T16:01:58.441Z,9.00
2023-04-10T16:04:26.269Z,8.27
2023-04-10T16:06:55.949Z,8.50
2023-04-10T16:09:26.463Z,9.13
2023-04-10T16:11:54.864Z,10.00
2023-04-10T16:14:23.365Z,10.17
2023-04-10T16:16:51.247Z,10.20
2023-04-10T16:19:18.885Z,12.37
2023-04-10T16:21:46.872Z,17.43
2023-04-10T16:24:14.908Z,9.77
2023-04-10T16:26:43.904Z,11.37
2023-04-10T16:29:11.542Z,11.43
2023-04-10T16:31:39.204Z,9.87
2023-04-10T16:34:07.300Z,9.47
2023-04-10T16:36:34.927Z,9.60
2023-04-10T16:39:02.553Z,9.30
2023-04-10T16:41:30.181Z,9.40
2023-04-10T16:43:59.163Z,10.47
2023-04-10T16:46:27.153Z,10.23
2023-04-10T16:48:55.191Z,11.27
2023-04-10T16:51:24.340Z,10.30
2023-04-10T16:53:52.090Z,15.70
2023-04-10T16:56:19.681Z,12.87
2023-04-10T16:58:47.398Z,12.50
2023-04-10T17:01:19.230Z,13.97
2023-04-10T17:03:48.250Z,13.33
2023-04-10T17:06:16.568Z,11.27
2023-04-10T17:08:44.466Z,10.93
2023-04-10T17:11:13.408Z,11.90
2023-04-10T17:13:41.339Z,10.10
2023-04-10T17:16:10.569Z,10.93
2023-04-10T17:18:39.708Z,10.60
2023-04-10T17:21:11.514Z,11.53
2023-04-10T17:23:40.040Z,10.30
2023-04-10T17:26:13.001Z,11.20
2023-04-10T17:28:40.832Z,10.87
2023-04-10T17:31:08.972Z,11.27
2023-04-10T17:33:36.669Z,12.03
2023-04-10T17:36:06.119Z,12.60
2023-04-10T17:38:33.736Z,11.77
2023-04-10T17:41:01.377Z,10.10
2023-04-10T17:43:29.018Z,9.70
2023-04-10T17:45:56.636Z,10.90
2023-04-10T17:48:24.444Z,10.70
2023-04-10T17:50:52.483Z,11.03
2023-04-10T17:53:21.543Z,10.57
2023-04-10T17:55:49.162Z,11.00
2023-04-10T17:58:17.145Z,9.83
2023-04-10T18:00:44.705Z,9.17
2023-04-10T18:03:12.410Z,10.27
2023-04-10T18:05:40.166Z,10.00
2023-04-10T18:08:08.598Z,9.43
2023-04-10T18:10:37.719Z,9.10
2023-04-10T18:13:05.606Z,9.20
2023-04-10T18:15:33.533Z,9.30
2023-04-10T18:18:01.189Z,13.07
2023-04-10T18:20:28.905Z,10.43
2023-04-10T18:22:56.580Z,11.93
2023-04-10T18:25:24.197Z,11.63
2023-04-10T18:28:12.945Z,10.80
2023-04-10T18:30:40.902Z,12.70
2023-04-10T18:33:11.050Z,10.80
2023-04-10T18:35:39.253Z,10.10
2023-04-10T18:38:07.376Z,10.33
2023-04-10T18:40:36.647Z,10.83
2023-04-10T18:43:05.806Z,10.50
2023-04-10T18:45:34.209Z,10.67
2023-04-10T18:48:01.976Z,10.60
2023-04-10T18:50:29.916Z,10.83
2023-04-10T18:52:57.546Z,10.73
2023-04-10T18:55:25.379Z,11.10
2023-04-10T18:57:53.225Z,11.17
2023-04-10T19:00:22.581Z,10.20
2023-04-10T19:02:50.382Z,10.47
2023-04-10T19:05:18.246Z,11.20
2023-04-10T19:07:56.523Z,10.50
2023-04-10T19:10:29.085Z,11.27
2023-04-10T19:12:57.300Z,11.37
2023-04-10T19:15:26.434Z,11.60
2023-04-10T19:17:54.552Z,10.60
2023-04-10T19:20:48.868Z,10.77
2023-04-10T19:23:11.048Z,11.80
2023-04-10T19:25:38.646Z,10.97
2023-04-10T19:28:07.062Z,11.47
2023-04-10T19:30:36.025Z,10.73
2023-04-10T19:33:03.786Z,10.83
2023-04-10T19:35:31.524Z,12.10
2023-04-10T19:37:59.245Z,12.20
2023-04-10T19:40:26.927Z,11.20
2023-04-10T19:42:54.621Z,10.90
2023-04-10T19:45:23.646Z,11.37
2023-04-10T19:47:52.885Z,11.37
2023-04-10T19:50:20.809Z,10.47
2023-04-10T19:52:48.499Z,10.90
2023-04-10T19:55:18.697Z,10.60
2023-04-10T19:57:46.636Z,11.80
2023-04-10T20:00:15.006Z,11.87
2023-04-10T20:02:42.911Z,12.10
2023-04-10T20:05:12.187Z,12.00
2023-04-10T20:07:40.603Z,11.33
2023-04-10T20:10:09.409Z,11.73
2023-04-10T20:12:37.071Z,11.60
2023-04-10T20:15:05.982Z,10.57
2023-04-10T20:17:33.628Z,10.00
2023-04-10T20:20:01.323Z,9.80
2023-04-10T20:22:30.367Z,9.90
2023-04-10T20:24:58.411Z,9.50
2023-04-10T20:27:26.197Z,9.80
2023-04-10T20:29:53.786Z,9.57
2023-04-10T20:32:21.421Z,9.70
2023-04-10T20:34:49.030Z,10.43
2023-04-10T20:37:21.576Z,10.10
2023-04-10T20:39:50.688Z,9.93
2023-04-10T20:42:18.279Z,9.87
2023-04-10T20:44:45.872Z,9.93
2023-04-10T20:47:13.923Z,9.00
2023-04-10T20:49:41.609Z,10.00
2023-04-10T20:52:09.775Z,10.70
2023-04-10T20:54:37.436Z,10.40
2023-04-10T20:57:06.463Z,10.07
2023-04-10T20:59:35.957Z,10.50
2023-04-10T21:02:03.749Z,11.00
2023-04-10T21:04:32.617Z,9.63
2023-04-10T21:07:00.391Z,10.17
2023-04-10T21:09:28.108Z,10.43
2023-04-10T21:11:57.251Z,10.27
2023-04-10T21:14:26.223Z,10.60
2023-04-10T21:16:54.120Z,10.93
2023-04-10T21:19:21.791Z,10.13
2023-04-10T21:21:49.383Z,11.10
2023-04-10T21:24:17.059Z,10.17
2023-04-10T21:26:45.072Z,10.67
2023-04-10T21:29:12.691Z,12.10
2023-04-10T21:31:41.641Z,10.60
2023-04-10T21:34:10.233Z,11.40
2023-04-10T21:36:37.840Z,10.77
2023-04-10T21:39:09.076Z,12.93
2023-04-10T21:41:37.349Z,13.80
2023-04-10T21:44:05.193Z,12.00
2023-04-10T21:46:33.385Z,12.83
2023-04-10T21:49:02.967Z,11.43
2023-04-10T21:51:31.049Z,12.20
2023-04-10T21:53:58.737Z,13.47
2023-04-10T21:56:26.363Z,11.13
2023-04-10T21:58:54.416Z,10.50
2023-04-10T22:01:22.338Z,10.40
2023-04-10T22:03:50.584Z,9.43
2023-04-10T22:06:19.725Z,9.40
2023-04-10T22:08:47.329Z,9.53
2023-04-10T22:11:14.992Z,8.77
2023-04-10T22:13:42.622Z,8.97
2023-04-10T22:16:10.344Z,8.87
2023-04-10T22:18:37.967Z,9.63
2023-04-10T22:21:06.071Z,9.50
2023-04-10T22:23:35.047Z,9.80
2023-04-10T22:26:02.778Z,11.00
2023-04-10T22:28:30.384Z,10.07
2023-04-10T22:30:58.064Z,9.77
2023-04-10T22:33:25.805Z,10.40
2023-04-10T22:35:53.662Z,11.60
2023-04-10T22:38:21.316Z,10.57
2023-04-10T22:40:50.243Z,9.93
2023-04-10T22:43:17.812Z,10.13
2023-04-10T22:45:45.440Z,11.30
2023-04-10T22:48:13.115Z,11.50
2023-04-10T22:50:40.990Z,11.47
2023-04-10T22:53:09.991Z,11.00
2023-04-10T22:55:38.300Z,10.90
2023-04-10T22:58:07.262Z,11.23
2023-04-10T23:00:35.500Z,10.50
2023-04-10T23:03:03.612Z,9.60
2023-04-10T23:05:32.876Z,10.27
2023-04-10T23:08:00.582Z,8.77
2023-04-10T23:10:28.383Z,9.23
2023-04-10T23:12:55.979Z,9.33
2023-04-10T23:15:25.137Z,9.27
2023-04-10T23:17:52.847Z,8.87
2023-04-10T23:20:20.706Z,8.30
2023-04-10T23:22:48.691Z,8.43
2023-04-10T23:25:16.468Z,8.60
2023-04-10T23:27:44.117Z,8.60
2023-04-10T23:30:12.206Z,9.40
2023-04-10T23:32:41.265Z,8.57
2023-04-10T23:35:09.564Z,8.83
2023-04-10T23:37:37.271Z,8.87
2023-04-10T23:40:05.879Z,9.33
2023-04-10T23:42:33.498Z,8.80
2023-04-10T23:45:01.155Z,8.23
2023-04-10T23:47:28.876Z,8.77
2023-04-10T23:49:58.482Z,8.33
2023-04-10T23:52:26.200Z,8.00
2023-04-10T23:54:56.596Z,8.20
2023-04-10T23:57:24.262Z,8.27
2023-04-10T23:59:52.230Z,8.33
